Time;durP1;ratioP1;P1;durP2;ratioP2;P2;SDS_P1;SDS_P2;PMS_P1;PMS_P2;Temp;Humidity;BMP_temperature;BMP_pressure;BME280_temperature;BME280_humidity;BME280_pressure;Samples;Min_cycle;Max_cycle;Signal;HPM_P1;HPM_P2
2023/02/02 00:01:52;;;;;;;;;;;;;;;11.00;45.53;100222.44;4921269;28;98159;-66
2023/02/02 00:04:26;;;;;;;;;;;;;;;10.99;45.84;100231.63;4924215;28;98285;-67
2023/02/02 00:06:52;;;;;;;;;;;;;;;10.98;45.84;100228.13;4935240;28;124234;-66
2023/02/02 00:09:19;;;;;;;;;;;;;;;10.99;45.65;100223.53;4917923;28;98071;-66
2023/02/02 00:11:45;;;;;;;;;;;;;;;10.99;45.69;100227.03;4909247;28;98074;-67
2023/02/02 00:14:11;;;;;;;;;;;;;;;10.98;45.71;100211.94;4920962;28;125912;-67
2023/02/02 00:16:42;;;;;;;;;;;;;;;10.99;45.84;100212.75;4922257;28;98120;-66
2023/02/02 00:19:10;;;;;;;;;;;;;;;10.99;45.55;100207.34;4935878;28;97875;-67
2023/02/02 00:21:37;;;;;;;;;;;;;;;10.98;45.54;100206.53;4908923;28;98075;-66
2023/02/02 00:24:04;;;;;;;;;;;;;;;10.99;45.61;100210.84;4937666;28;99466;-67
2023/02/02 00:26:30;;;;;;;;;;;;;;;10.97;45.59;100199.53;4923824;28;99763;-66
2023/02/02 00:28:56;;;;;;;;;;;;;;;10.99;45.84;100196.56;4905367;28;129732;-67
2023/02/02 00:31:22;;;;;;;;;;;;;;;10.99;45.79;100204.66;4917543;28;98514;-67
2023/02/02 00:33:48;;;;;;;;;;;;;;;10.98;45.54;100194.94;4921232;28;115272;-66
2023/02/02 00:36:15;;;;;;;;;;;;;;;10.97;45.38;100204.13;4922368;28;98887;-67
2023/02/02 00:38:41;;;;;;;;;;;;;;;10.98;45.27;100211.13;4920891;28;98673;-66
2023/02/02 00:41:07;;;;;;;;;;;;;;;10.96;45.66;100203.28;4918162;28;119766;-67
2023/02/02 00:43:33;;;;;;;;;;;;;;;10.95;45.82;100204.38;4922965;28;97849;-66
2023/02/02 00:45:58;;;;;;;;;;;;;;;10.94;45.96;100205.47;4907126;28;127853;-66
2023/02/02 00:48:24;;;;;;;;;;;;;;;10.94;45.74;100210.06;4936594;28;118998;-67
2023/02/02 00:50:51;;;;;;;;;;;;;;;10.92;45.80;100202.25;4935299;28;117491;-66
2023/02/02 00:53:17;;;;;;;;;;;;;;;10.92;45.53;100201.44;4919547;28;121366;-67
2023/02/02 00:55:43;;;;;;;;;;;;;;;10.90;46.05;100201.72;4918452;28;123596;-67
2023/02/02 00:58:09;;;;;;;;;;;;;;;10.88;45.84;100205.75;4920495;28;98220;-66
2023/02/02 01:00:36;;;;;;;;;;;;;;;10.89;45.92;100200.13;4919613;28;116944;-66
2023/02/02 01:03:03;;;;;;;;;;;;;;;10.88;46.02;100205.75;4905050;28;98284;-67
2023/02/02 01:05:30;;;;;;;;;;;;;;;10.87;45.73;100201.47;4935680;28;98313;-67
2023/02/02 01:07:56;;;;;;;;;;;;;;;10.86;45.97;100205.25;4904519;28;99334;-66
2023/02/02 01:10:22;;;;;;;;;;;;;;;10.85;45.40;100204.44;4924519;28;117004;-67
2023/02/02 01:12:48;;;;;;;;;;;;;;;10.84;45.88;100207.41;4923553;28;124683;-67
2023/02/02 01:15:14;;;;;;;;;;;;;;;10.81;45.51;100190.69;4938042;28;127814;-67
2023/02/02 01:17:40;;;;;;;;;;;;;;;10.81;45.82;100203.38;4911522;28;112763;-67
2023/02/02 01:20:07;;;;;;;;;;;;;;;10.80;45.55;100204.44;4940894;28;117416;-67
2023/02/02 01:22:33;;;;;;;;;;;;;;;10.79;46.02;100200.13;4940525;28;98617;-66
2023/02/02 01:25:00;;;;;;;;;;;;;;;10.77;45.38;100208.50;4908615;28;99859;-66
2023/02/02 01:27:25;;;;;;;;;;;;;;;10.78;45.78;100195.84;4923477;28;98165;-66
2023/02/02 01:29:51;;;;;;;;;;;;;;;10.76;45.56;100185.31;4939436;28;102541;-66
2023/02/02 01:32:17;;;;;;;;;;;;;;;10.75;45.78;100199.88;4939592;28;128798;-66
2023/02/02 01:34:43;;;;;;;;;;;;;;;10.75;45.47;100190.97;4937294;28;127281;-66
2023/02/02 01:37:09;;;;;;;;;;;;;;;10.75;45.85;100188.28;4937119;28;125814;-66
2023/02/02 01:39:35;;;;;;;;;;;;;;;10.75;45.55;100193.69;4924053;28;104733;-67
2023/02/02 01:42:02;;;;;;;;;;;;;;;10.74;45.71;100182.09;4942198;28;117065;-66
2023/02/02 01:45:02;;;;;;;;;;;;;;;10.74;45.44;100186.69;4907982;28;110726;-66
2023/02/02 01:47:33;;;;;;;;;;;;;;;10.75;45.39;100185.59;4940578;28;98403;-66
2023/02/02 01:49:59;;;;;;;;;;;;;;;10.74;45.58;100190.19;4924313;28;98211;-66
2023/02/02 01:52:26;;;;;;;;;;;;;;;10.75;45.41;100191.78;4923726;28;128089;-66
2023/02/02 01:55:00;;;;;;;;;;;;;;;10.76;46.05;100189.91;4938603;28;103060;-66
2023/02/02 01:57:32;;;;;;;;;;;;;;;10.75;45.78;100194.47;4958566;28;98017;-66
2023/02/02 01:59:59;;;;;;;;;;;;;;;10.75;45.84;100194.47;4925578;28;117500;-67
2023/02/02 02:02:25;;;;;;;;;;;;;;;10.77;45.61;100194.22;4905983;28;98026;-67
2023/02/02 02:04:51;;;;;;;;;;;;;;;10.78;45.83;100198.53;4922595;28;117653;-66
2023/02/02 02:07:17;;;;;;;;;;;;;;;10.78;45.43;100198.53;4922906;28;127738;-66
2023/02/02 02:09:43;;;;;;;;;;;;;;;10.79;45.55;100202.84;4940395;28;116317;-66
2023/02/02 02:12:14;;;;;;;;;;;;;;;10.79;45.64;100202.84;4923851;28;128744;-66
2023/02/02 02:17:48;;;;;;;;;;;;;;;10.80;45.60;100212.53;4935762;28;97826;-66
2023/02/02 02:26:34;;;;;;;;;;;;;;;10.84;45.96;100207.41;4940875;28;98122;-66
2023/02/02 02:29:18;;;;;;;;;;;;;;;10.80;45.98;100205.25;4925356;28;99012;-66
2023/02/02 02:32:00;;;;;;;;;;;;;;;10.79;45.83;100200.94;4936998;28;98197;-66
2023/02/02 02:34:49;;;;;;;;;;;;;;;10.77;45.54;100205.00;4938566;28;122732;-66
2023/02/02 02:37:29;;;;;;;;;;;;;;;10.75;45.50;100204.47;4942250;28;98005;-66
2023/02/02 02:40:39;;;;;;;;;;;;;;;10.75;45.79;100202.56;4940330;28;98424;-67
2023/02/02 02:43:32;;;;;;;;;;;;;;;10.74;45.66;100197.47;4936073;28;98219;-67
2023/02/02 02:45:57;;;;;;;;;;;;;;;10.73;45.70;100195.88;4907008;28;98104;-67
2023/02/02 02:48:23;;;;;;;;;;;;;;;10.73;45.70;100191.28;4934346;28;126818;-66
2023/02/02 02:50:49;;;;;;;;;;;;;;;10.71;45.46;100193.41;4938316;28;125553;-66
2023/02/02 02:53:17;;;;;;;;;;;;;;;10.73;45.62;100201.25;4923404;28;117134;-67
2023/02/02 02:56:02;;;;;;;;;;;;;;;10.72;45.28;100192.34;4922912;28;98505;-66
2023/02/02 02:58:54;;;;;;;;;;;;;;;10.71;45.68;100198.81;4916955;28;125046;-67
2023/02/02 03:01:31;;;;;;;;;;;;;;;10.71;45.25;100195.31;4918685;28;102074;-66
2023/02/02 03:04:25;;;;;;;;;;;;;;;10.71;45.63;100204.22;4922620;28;109304;-66
2023/02/02 03:07:09;;;;;;;;;;;;;;;10.70;45.66;100197.22;4925397;28;118752;-67
2023/02/02 03:09:36;;;;;;;;;;;;;;;10.71;45.72;100198.00;4907942;28;101552;-66
2023/02/02 03:12:02;;;;;;;;;;;;;;;10.70;45.80;100199.91;4923143;28;97926;-67
2023/02/02 03:14:27;;;;;;;;;;;;;;;10.69;45.82;100201.00;4935953;28;117363;-67
2023/02/02 03:16:53;;;;;;;;;;;;;;;10.70;45.69;100210.69;4907406;28;127886;-66
2023/02/02 03:19:19;;;;;;;;;;;;;;;10.69;45.26;100214.47;4906604;28;127824;-66
2023/02/02 03:21:45;;;;;;;;;;;;;;;10.69;45.65;100216.34;4908151;28;99200;-66
2023/02/02 03:24:11;;;;;;;;;;;;;;;10.70;45.92;100218.78;4923550;28;98530;-67
2023/02/02 03:26:37;;;;;;;;;;;;;;;10.70;45.61;100226.88;4938044;28;98460;-66
2023/02/02 03:29:03;;;;;;;;;;;;;;;10.69;45.39;100222.56;4935286;28;100080;-66
2023/02/02 03:31:29;;;;;;;;;;;;;;;10.69;45.21;100225.25;4922574;28;102336;-66
2023/02/02 03:33:55;;;;;;;;;;;;;;;10.69;45.34;100219.88;4918413;28;117263;-66
2023/02/02 03:36:21;;;;;;;;;;;;;;;10.68;45.28;100220.91;4920962;28;127641;-66
2023/02/02 03:38:47;;;;;;;;;;;;;;;10.69;45.90;100213.63;4903833;28;98155;-66
2023/02/02 03:41:13;;;;;;;;;;;;;;;10.67;45.29;100210.44;4921651;28;126055;-67
2023/02/02 03:43:39;;;;;;;;;;;;;;;10.67;45.30;100216.63;4938068;28;117255;-67
2023/02/02 03:46:05;;;;;;;;;;;;;;;10.66;45.37;100225.78;4921504;28;128202;-66
2023/02/02 03:48:33;;;;;;;;;;;;;;;10.68;45.60;100222.81;4922518;28;100033;-66
2023/02/02 03:50:59;;;;;;;;;;;;;;;10.67;45.68;100226.59;4935713;28;121885;-66
2023/02/02 03:53:24;;;;;;;;;;;;;;;10.68;45.51;100239.00;4936409;28;116338;-66
2023/02/02 03:55:50;;;;;;;;;;;;;;;10.67;45.71;100240.06;4905611;28;129717;-66
2023/02/02 03:58:16;;;;;;;;;;;;;;;10.66;45.17;100236.56;4934396;28;120665;-66
2023/02/02 04:00:42;;;;;;;;;;;;;;;10.66;45.71;100236.56;4920944;28;127411;-66
2023/02/02 04:03:08;;;;;;;;;;;;;;;10.65;45.80;100229.56;4921370;28;109788;-67
2023/02/02 04:05:34;;;;;;;;;;;;;;;10.66;45.22;100233.88;4906163;28;127723;-66
2023/02/02 04:08:00;;;;;;;;;;;;;;;10.66;45.23;100231.19;4938418;28;129327;-66
2023/02/02 04:10:26;;;;;;;;;;;;;;;10.66;45.64;100247.34;4921874;28;119449;-66
2023/02/02 04:12:52;;;;;;;;;;;;;;;10.66;45.26;100243.84;4921910;28;117538;-66
2023/02/02 04:15:18;;;;;;;;;;;;;;;10.66;45.52;100244.66;4917315;28;115229;-66
2023/02/02 04:17:43;;;;;;;;;;;;;;;10.67;45.67;100251.66;4919428;28;126102;-66
2023/02/02 04:20:10;;;;;;;;;;;;;;;10.67;45.54;100253.56;4913303;28;127132;-66
2023/02/02 04:22:36;;;;;;;;;;;;;;;10.66;45.13;100266.22;4937926;28;115031;-66
2023/02/02 04:25:02;;;;;;;;;;;;;;;10.67;45.69;100258.94;4920753;28;128612;-66
2023/02/02 04:27:31;;;;;;;;;;;;;;;10.66;45.39;100247.34;4920307;28;127236;-66
2023/02/02 04:29:57;;;;;;;;;;;;;;;10.67;45.72;100275.13;4924010;28;97982;-66
2023/02/02 04:32:23;;;;;;;;;;;;;;;10.66;45.62;100263.53;4921948;28;120405;-66
2023/02/02 04:34:49;;;;;;;;;;;;;;;10.67;45.54;100270.53;4936932;28;129032;-66
2023/02/02 04:37:14;;;;;;;;;;;;;;;10.68;45.86;100276.72;4920595;28;127312;-67
2023/02/02 04:39:40;;;;;;;;;;;;;;;10.66;45.67;100277.00;4920042;28;127192;-66
2023/02/02 04:42:06;;;;;;;;;;;;;;;10.68;45.78;100274.03;4920444;28;116159;-66
2023/02/02 04:44:32;;;;;;;;;;;;;;;10.67;45.84;100275.91;4921903;28;130264;-66
2023/02/02 04:46:58;;;;;;;;;;;;;;;10.69;45.23;100278.34;4922677;28;97953;-66
2023/02/02 04:49:24;;;;;;;;;;;;;;;10.69;45.41;100291.81;4924076;28;122777;-66
2023/02/02 04:51:50;;;;;;;;;;;;;;;10.70;45.57;100291.56;4940898;28;118050;-66
2023/02/02 04:54:16;;;;;;;;;;;;;;;10.72;45.68;100302.88;4955305;28;127913;-66
2023/02/02 04:56:42;;;;;;;;;;;;;;;10.72;45.42;100294.78;4941036;28;98535;-66
2023/02/02 04:59:08;;;;;;;;;;;;;;;10.71;45.40;100305.84;4938365;28;117800;-66
2023/02/02 05:01:34;;;;;;;;;;;;;;;10.73;45.80;100304.50;4939388;28;97896;-65
2023/02/02 05:04:00;;;;;;;;;;;;;;;10.74;45.77;100300.72;4937077;28;127484;-66
2023/02/02 05:06:26;;;;;;;;;;;;;;;10.74;45.70;100316.91;4938791;28;127550;-65
2023/02/02 05:08:52;;;;;;;;;;;;;;;10.76;45.42;100322.81;4920725;28;127828;-65
2023/02/02 05:11:21;;;;;;;;;;;;;;;10.77;45.85;100329.84;4920980;28;109693;-65
2023/02/02 05:13:50;;;;;;;;;;;;;;;10.77;45.70;100332.53;4940843;28;120682;-66
2023/02/02 05:16:16;;;;;;;;;;;;;;;10.79;45.61;100318.78;4924547;28;117365;-65
2023/02/02 05:18:42;;;;;;;;;;;;;;;10.78;45.30;100336.84;4910434;28;127130;-65
2023/02/02 05:21:08;;;;;;;;;;;;;;;10.80;45.63;100339.25;4923923;28;97919;-65
2023/02/02 05:23:34;;;;;;;;;;;;;;;10.79;45.41;100341.16;4939603;28;118584;-65
2023/02/02 05:26:00;;;;;;;;;;;;;;;10.80;45.67;100342.75;4936724;28;128350;-65
2023/02/02 05:28:26;;;;;;;;;;;;;;;10.82;45.42;100350.59;4924721;28;111799;-65
2023/02/02 05:30:52;;;;;;;;;;;;;;;10.82;45.76;100347.91;4940325;28;116956;-66
2023/02/02 05:33:18;;;;;;;;;;;;;;;10.84;45.74;100350.31;4914963;28;100267;-65
2023/02/02 05:35:47;;;;;;;;;;;;;;;10.83;45.43;100352.19;4924872;28;98125;-65
2023/02/02 05:38:14;;;;;;;;;;;;;;;10.84;45.63;100351.13;4938756;28;123774;-65
2023/02/02 05:40:40;;;;;;;;;;;;;;;10.85;45.72;100347.34;4923577;28;114083;-66
2023/02/02 05:43:06;;;;;;;;;;;;;;;10.85;45.81;100360.84;4936791;28;127475;-66
2023/02/02 05:45:31;;;;;;;;;;;;;;;10.85;45.87;100351.94;4938814;28;128617;-65
2023/02/02 05:47:58;;;;;;;;;;;;;;;10.86;45.57;100350.84;4940203;28;128058;-65
2023/02/02 05:50:23;;;;;;;;;;;;;;;10.87;45.43;100355.16;4923355;28;98845;-66
2023/02/02 05:52:49;;;;;;;;;;;;;;;10.90;45.82;100366.22;4939372;28;128287;-66
2023/02/02 05:55:17;;;;;;;;;;;;;;;10.96;45.74;100357.03;4920186;28;121669;-67
2023/02/02 05:57:43;;;;;;;;;;;;;;;11.04;45.54;100352.97;4923930;28;100159;-66
2023/02/02 06:00:09;;;;;;;;;;;;;;;11.12;45.77;100365.09;4938837;28;98107;-66
2023/02/02 06:02:35;;;;;;;;;;;;;;;11.18;45.58;100364.81;4923573;28;99898;-66
2023/02/02 06:05:01;;;;;;;;;;;;;;;11.22;45.38;100365.09;4931826;28;127661;-66
2023/02/02 06:07:27;;;;;;;;;;;;;;;11.25;45.82;100375.34;4922603;28;98657;-66
2023/02/02 06:09:53;;;;;;;;;;;;;;;11.29;45.63;100373.69;4924349;28;98001;-66
2023/02/02 06:12:19;;;;;;;;;;;;;;;11.31;45.81;100374.22;4923082;28;127864;-67
2023/02/02 06:14:45;;;;;;;;;;;;;;;11.34;45.67;100375.56;4937548;28;101579;-66
2023/02/02 06:17:11;;;;;;;;;;;;;;;11.36;45.64;100378.78;4922831;28;127811;-66
2023/02/02 06:19:37;;;;;;;;;;;;;;;11.37;45.60;100388.53;4925169;28;99354;-66
2023/02/02 06:22:03;;;;;;;;;;;;;;;11.38;45.67;100393.63;4926365;28;127159;-66
2023/02/02 06:24:29;;;;;;;;;;;;;;;11.39;45.71;100394.44;4922900;28;128727;-67
2023/02/02 06:26:55;;;;;;;;;;;;;;;11.41;45.55;100405.78;4936948;28;127100;-66
2023/02/02 06:29:21;;;;;;;;;;;;;;;11.40;45.86;100413.06;4920836;28;111027;-66
2023/02/02 06:31:47;;;;;;;;;;;;;;;11.41;45.66;100420.09;4910435;28;129392;-65
2023/02/02 06:34:13;;;;;;;;;;;;;;;11.42;45.67;100426.28;4922028;28;128161;-66
2023/02/02 06:36:39;;;;;;;;;;;;;;;11.41;45.87;100422.78;4939180;28;99350;-66
2023/02/02 06:39:06;;;;;;;;;;;;;;;11.41;45.49;100436.28;4922620;28;113016;-66
2023/02/02 06:41:33;;;;;;;;;;;;;;;11.42;45.61;100445.19;4925190;28;97977;-66
2023/02/02 06:43:59;;;;;;;;;;;;;;;11.42;45.53;100439.78;4923678;28;113037;-66
2023/02/02 06:46:25;;;;;;;;;;;;;;;11.43;45.73;100454.88;4937651;28;126675;-65
2023/02/02 06:48:51;;;;;;;;;;;;;;;11.42;45.61;100456.78;4936707;28;117686;-66
2023/02/02 06:51:17;;;;;;;;;;;;;;;11.42;45.47;100455.97;4919394;28;129585;-65
2023/02/02 06:53:42;;;;;;;;;;;;;;;11.42;45.49;100464.06;4937676;28;98401;-65
2023/02/02 06:56:11;;;;;;;;;;;;;;;11.41;45.73;100459.75;4916805;28;121982;-66
2023/02/02 06:58:37;;;;;;;;;;;;;;;11.42;45.61;100469.47;4913062;28;99336;-66
2023/02/02 07:01:04;;;;;;;;;;;;;;;11.42;45.70;100474.88;4924199;28;115192;-66
2023/02/02 07:03:30;;;;;;;;;;;;;;;11.43;45.65;100487.28;4923352;28;97959;-66
2023/02/02 07:05:56;;;;;;;;;;;;;;;11.41;45.79;100497.56;4924238;28;97991;-65
2023/02/02 07:08:22;;;;;;;;;;;;;;;11.40;45.71;100494.03;4917743;28;117196;-66
2023/02/02 07:10:48;;;;;;;;;;;;;;;11.42;45.58;100496.47;4918987;28;126211;-65
2023/02/02 07:13:14;;;;;;;;;;;;;;;11.43;45.64;100490.78;4934926;28;105759;-65
2023/02/02 07:15:40;;;;;;;;;;;;;;;11.44;45.35;100494.31;4917592;28;125896;-66
2023/02/02 07:18:06;;;;;;;;;;;;;;;11.47;45.40;100493.75;4923019;28;98747;-66
2023/02/02 07:20:32;;;;;;;;;;;;;;;11.48;45.43;100485.41;4920456;28;126382;-66
2023/02/02 07:22:57;;;;;;;;;;;;;;;11.51;45.56;100492.13;4922837;28;128273;-66
2023/02/02 07:25:23;;;;;;;;;;;;;;;11.52;45.48;100505.38;4905900;28;127987;-67
2023/02/02 07:27:53;;;;;;;;;;;;;;;11.52;45.42;100505.38;4926427;28;100462;-66
2023/02/02 07:30:19;;;;;;;;;;;;;;;11.53;45.38;100508.88;4938331;28;98810;-66
2023/02/02 07:32:46;;;;;;;;;;;;;;;11.53;45.29;100517.78;4923343;28;99637;-65
2023/02/02 07:35:12;;;;;;;;;;;;;;;11.51;45.63;100514.56;4919026;28;98046;-65
2023/02/02 07:37:38;;;;;;;;;;;;;;;11.53;45.62;100525.06;4935403;28;112730;-66
2023/02/02 07:40:04;;;;;;;;;;;;;;;11.52;45.32;100516.16;4903431;28;127701;-65
2023/02/02 07:42:30;;;;;;;;;;;;;;;11.55;45.38;100518.31;4936309;28;98052;-65
2023/02/02 07:44:56;;;;;;;;;;;;;;;11.59;45.60;100515.06;4936428;28;127817;-66
2023/02/02 07:47:24;;;;;;;;;;;;;;;11.57;45.54;100517.22;4910903;28;97992;-65
2023/02/02 07:49:50;;;;;;;;;;;;;;;11.54;45.68;100521.28;4921483;28;98832;-65
2023/02/02 07:52:15;;;;;;;;;;;;;;;11.56;45.50;100524.53;4918077;28;129594;-65
2023/02/02 07:54:41;;;;;;;;;;;;;;;11.59;45.49;100521.25;4940205;28;129894;-65
2023/02/02 07:57:07;;;;;;;;;;;;;;;11.59;45.65;100534.75;4919293;28;115576;-66
2023/02/02 07:59:33;;;;;;;;;;;;;;;11.58;45.51;100535.03;4938450;28;114712;-65
2023/02/02 08:01:59;;;;;;;;;;;;;;;11.57;45.43;100536.13;4921316;28;128245;-67
2023/02/02 08:04:25;;;;;;;;;;;;;;;11.56;45.50;100540.72;4903654;28;126517;-65
2023/02/02 08:06:51;;;;;;;;;;;;;;;11.57;45.73;100550.44;4921427;28;98005;-66
2023/02/02 08:09:17;;;;;;;;;;;;;;;11.56;45.55;100556.94;4921601;28;98610;-65
2023/02/02 08:11:43;;;;;;;;;;;;;;;11.56;45.72;100556.94;4921028;28;100937;-66
2023/02/02 08:14:10;;;;;;;;;;;;;;;11.55;45.71;100553.41;4937316;28;128344;-66
2023/02/02 08:16:36;;;;;;;;;;;;;;;11.57;45.71;100560.44;4906729;28;114050;-66
2023/02/02 08:19:02;;;;;;;;;;;;;;;11.55;45.59;100571.47;4921343;28;127221;-65
2023/02/02 08:21:30;;;;;;;;;;;;;;;11.59;45.67;100585.25;4922817;28;128467;-65
2023/02/02 08:23:56;;;;;;;;;;;;;;;11.59;45.60;100593.34;4922883;28;126308;-65
2023/02/02 08:26:26;;;;;;;;;;;;;;;11.59;45.37;100599.56;4921502;28;116851;-65
2023/02/02 08:28:57;;;;;;;;;;;;;;;11.59;45.82;100599.56;4918817;28;98294;-65
2023/02/02 08:31:28;;;;;;;;;;;;;;;11.59;45.46;100609.53;4936867;28;98548;-64
2023/02/02 08:33:56;;;;;;;;;;;;;;;11.58;45.42;100614.13;4951751;28;98012;-64
2023/02/02 08:36:22;;;;;;;;;;;;;;;11.60;45.54;100620.09;4921144;28;98113;-64
2023/02/02 08:38:48;;;;;;;;;;;;;;;11.61;45.75;100618.19;4937093;28;98314;-65
2023/02/02 08:41:16;;;;;;;;;;;;;;;11.65;45.63;100606.59;4920029;28;120713;-65
2023/02/02 08:43:42;;;;;;;;;;;;;;;11.67;45.43;100612.53;4937955;28;97892;-66
2023/02/02 08:46:09;;;;;;;;;;;;;;;11.77;45.33;100611.72;4920461;28;98127;-66
2023/02/02 08:48:35;;;;;;;;;;;;;;;11.84;45.39;100624.97;4934840;28;109672;-66
2023/02/02 08:51:01;;;;;;;;;;;;;;;11.87;45.30;100613.59;4920908;28;126214;-66
2023/02/02 08:53:27;;;;;;;;;;;;;;;11.99;45.27;100617.66;4921297;28;99267;-66
2023/02/02 08:56:09;;;;;;;;;;;;;;;12.01;45.13;100617.38;4902597;28;117069;-66
2023/02/02 08:58:35;;;;;;;;;;;;;;;12.04;45.20;100600.63;4918065;28;121626;-66
2023/02/02 09:01:10;;;;;;;;;;;;;;;12.13;45.13;100612.50;4923006;28;98300;-67
2023/02/02 09:03:39;;;;;;;;;;;;;;;12.25;45.03;100612.19;4919878;28;119741;-68
2023/02/02 09:06:30;;;;;;;;;;;;;;;12.28;44.98;100619.75;4935978;28;98110;-66
2023/02/02 09:08:55;;;;;;;;;;;;;;;12.28;44.94;100619.75;4921390;28;125421;-66
2023/02/02 09:11:22;;;;;;;;;;;;;;;12.27;45.26;100618.13;4937316;28;128470;-66
2023/02/02 09:13:48;;;;;;;;;;;;;;;12.24;45.13;100624.91;4919952;28;128555;-66
2023/02/02 09:16:15;;;;;;;;;;;;;;;12.24;45.38;100622.19;4918293;28;98058;-66
2023/02/02 09:18:41;;;;;;;;;;;;;;;12.36;45.08;100629.19;4919420;28;98066;-66
2023/02/02 09:21:08;;;;;;;;;;;;;;;12.64;44.78;100639.34;4939771;28;99215;-66
2023/02/02 09:23:36;;;;;;;;;;;;;;;12.64;44.75;100643.97;4937898;28;121192;-66
2023/02/02 09:26:22;;;;;;;;;;;;;;;12.69;44.77;100644.78;4923124;28;99826;-66
2023/02/02 09:28:52;;;;;;;;;;;;;;;12.69;45.30;100657.47;4937222;28;98234;-66
2023/02/02 09:31:18;;;;;;;;;;;;;;;12.62;45.13;100659.66;4908919;28;101352;-66
2023/02/02 09:33:44;;;;;;;;;;;;;;;12.59;45.36;100671.84;4939285;28;127261;-65
2023/02/02 09:36:14;;;;;;;;;;;;;;;12.56;45.09;100658.84;4942174;28;98130;-65
2023/02/02 09:38:40;;;;;;;;;;;;;;;12.68;44.98;100661.25;4924723;28;98535;-66
2023/02/02 09:41:37;;;;;;;;;;;;;;;12.63;45.07;100662.09;4906991;28;98096;-66
2023/02/02 09:44:37;;;;;;;;;;;;;;;12.82;44.87;100673.09;4938682;28;97895;-66
2023/02/02 09:47:22;;;;;;;;;;;;;;;13.94;43.90;100660.75;4923040;28;108888;-66
2023/02/02 09:50:15;;;;;;;;;;;;;;;14.30;43.61;100665.81;4925677;28;98723;-67
2023/02/02 09:53:05;;;;;;;;;;;;;;;14.21;43.97;100663.75;4942124;28;99332;-66
2023/02/02 09:55:39;;;;;;;;;;;;;;;14.39;44.20;100662.22;4933355;28;116663;-67
2023/02/02 09:58:20;;;;;;;;;;;;;;;14.36;44.15;100665.50;4923514;28;117458;-67
2023/02/02 10:01:16;;;;;;;;;;;;;;;14.41;44.22;100668.13;4938781;28;121613;-66
2023/02/02 10:03:52;;;;;;;;;;;;;;;14.43;44.43;100663.25;4925161;28;123563;-67
2023/02/02 10:06:30;;;;;;;;;;;;;;;14.43;44.47;100673.28;4907468;28;97974;-66
2023/02/02 10:09:27;;;;;;;;;;;;;;;14.46;44.25;100672.69;4940491;28;98142;-66
2023/02/02 10:11:55;;;;;;;;;;;;;;;14.29;44.56;100678.56;4911951;28;97949;-66
2023/02/02 10:14:43;;;;;;;;;;;;;;;14.20;44.88;100680.31;4938242;28;98029;-66
2023/02/02 10:17:36;;;;;;;;;;;;;;;14.06;45.12;100692.91;4914858;28;98105;-66
2023/02/02 10:20:22;;;;;;;;;;;;;;;14.06;44.75;100691.00;4938686;28;112099;-65
2023/02/02 10:22:48;;;;;;;;;;;;;;;14.21;44.77;100690.84;4939495;28;98261;-65
2023/02/02 10:25:14;;;;;;;;;;;;;;;14.12;44.70;100694.47;4935566;28;128115;-66
2023/02/02 10:27:40;;;;;;;;;;;;;;;14.14;44.74;100689.56;4938224;28;112961;-65
2023/02/02 10:30:15;;;;;;;;;;;;;;;14.34;44.41;100683.94;4923182;28;102839;-66
2023/02/02 10:32:54;;;;;;;;;;;;;;;14.53;44.19;100684.03;4926771;28;116044;-66
2023/02/02 10:36:08;;;;;;;;;;;;;;;14.64;44.43;100688.25;4925757;28;99663;-66
2023/02/02 10:38:59;;;;;;;;;;;;;;;14.57;44.55;100676.13;4935001;28;100232;-66
2023/02/02 10:41:50;;;;;;;;;;;;;;;14.61;44.62;100680.69;4935410;28;98383;-66
2023/02/02 10:45:06;;;;;;;;;;;;;;;14.51;44.43;100680.81;4938333;28;98760;-66
2023/02/02 10:47:32;;;;;;;;;;;;;;;14.56;44.70;100680.75;4921678;28;98457;-66
2023/02/02 10:50:13;;;;;;;;;;;;;;;14.64;44.43;100668.47;4921684;28;98607;-66
2023/02/02 10:53:09;;;;;;;;;;;;;;;14.82;44.47;100667.72;4924758;28;98362;-66
2023/02/02 10:55:52;;;;;;;;;;;;;;;15.03;44.10;100672.88;4922542;28;124383;-66
2023/02/02 10:58:46;;;;;;;;;;;;;;;14.95;44.20;100677.84;4923161;28;122844;-66
2023/02/02 11:01:16;;;;;;;;;;;;;;;14.77;44.59;100680.53;4937344;28;126908;-66
2023/02/02 11:03:42;;;;;;;;;;;;;;;14.70;44.90;100678.19;4924342;28;98456;-66
2023/02/02 11:08:55;;;;;;;;;;;;;;;14.56;45.01;100696.22;4935604;28;98262;-67
2023/02/02 11:11:31;;;;;;;;;;;;;;;14.47;44.84;100694.13;4922870;28;98272;-66
2023/02/02 11:14:08;;;;;;;;;;;;;;;14.39;45.26;100704.78;4935469;28;98760;-66
2023/02/02 11:16:35;;;;;;;;;;;;;;;14.28;45.32;100719.53;4938824;28;98221;-66
2023/02/02 11:19:01;;;;;;;;;;;;;;;14.17;45.14;100721.53;4922135;28;98231;-65
2023/02/02 11:21:33;;;;;;;;;;;;;;;14.06;45.19;100728.94;4934480;28;128478;-66
2023/02/02 11:24:03;;;;;;;;;;;;;;;13.98;45.28;100733.06;4937945;28;117122;-65
2023/02/02 11:26:50;;;;;;;;;;;;;;;13.90;45.33;100724.72;4938609;28;98482;-66
2023/02/02 11:29:27;;;;;;;;;;;;;;;14.03;45.30;100715.97;4937899;28;99599;-66
2023/02/02 11:31:53;;;;;;;;;;;;;;;14.13;44.78;100709.63;4920167;28;97992;-66
2023/02/02 11:34:21;;;;;;;;;;;;;;;14.13;45.20;100712.34;4955741;28;117562;-66
2023/02/02 11:37:06;;;;;;;;;;;;;;;14.02;44.99;100719.75;4940006;28;98012;-66
2023/02/02 11:39:32;;;;;;;;;;;;;;;14.05;44.89;100721.09;4935877;28;99402;-66
2023/02/02 11:42:15;;;;;;;;;;;;;;;14.00;45.12;100724.66;4922233;28;119140;-66
2023/02/02 11:44:46;;;;;;;;;;;;;;;13.89;45.51;100729.34;4924339;28;98149;-66
2023/02/02 11:47:26;;;;;;;;;;;;;;;13.88;45.12;100735.88;4923334;28;97962;-66
2023/02/02 11:49:53;;;;;;;;;;;;;;;13.81;45.33;100742.69;4935539;28;124638;-66
2023/02/02 11:52:20;;;;;;;;;;;;;;;13.72;45.35;100750.63;4939757;28;97938;-66
2023/02/02 11:54:51;;;;;;;;;;;;;;;13.72;45.44;100750.63;4937112;28;98288;-66
2023/02/02 11:57:27;;;;;;;;;;;;;;;13.70;45.27;100750.06;4921530;28;99952;-66
2023/02/02 12:00:09;;;;;;;;;;;;;;;13.69;45.23;100741.16;4939267;28;98349;-66
2023/02/02 12:02:35;;;;;;;;;;;;;;;13.67;45.25;100747.91;4938339;28;98116;-66
2023/02/02 12:05:19;;;;;;;;;;;;;;;13.75;45.00;100752.75;4938473;28;117714;-66
2023/02/02 12:07:45;;;;;;;;;;;;;;;13.82;44.95;100765.97;4937164;28;100169;-66
2023/02/02 12:10:26;;;;;;;;;;;;;;;13.64;45.51;100784.53;4919071;28;121666;-65
2023/02/02 12:13:01;;;;;;;;;;;;;;;13.52;45.22;100762.38;4922219;28;97874;-66
2023/02/02 12:15:50;;;;;;;;;;;;;;;13.50;45.34;100757.22;4953982;28;98024;-65
2023/02/02 12:18:39;;;;;;;;;;;;;;;13.56;45.42;100744.50;4921246;28;98008;-65
2023/02/02 12:21:07;;;;;;;;;;;;;;;13.53;45.36;100742.34;4936925;28;128863;-66
2023/02/02 12:23:39;;;;;;;;;;;;;;;13.47;45.08;100744.25;4937130;28;98405;-66
2023/02/02 12:26:20;;;;;;;;;;;;;;;13.48;45.41;100745.09;4935642;28;114084;-66
2023/02/02 12:29:04;;;;;;;;;;;;;;;13.57;44.92;100743.41;4937286;28;98403;-66
2023/02/02 12:31:52;;;;;;;;;;;;;;;13.60;44.96;100758.28;4935988;28;97975;-66
2023/02/02 12:34:29;;;;;;;;;;;;;;;13.60;45.00;100761.00;4935723;28;98038;-67
2023/02/02 12:37:18;;;;;;;;;;;;;;;13.49;45.22;100768.34;4935147;28;97912;-66
2023/02/02 12:39:56;;;;;;;;;;;;;;;13.50;45.27;100762.66;4903904;28;99242;-67
2023/02/02 12:42:49;;;;;;;;;;;;;;;13.53;45.15;100769.41;4935548;28;97857;-66
2023/02/02 12:45:36;;;;;;;;;;;;;;;13.59;45.02;100787.25;4918442;28;108052;-66
2023/02/02 12:48:23;;;;;;;;;;;;;;;13.59;45.20;100773.69;4940163;28;98310;-68
2023/02/02 12:50:59;;;;;;;;;;;;;;;13.53;45.42;100779.44;4938859;28;99027;-66
2023/02/02 12:53:28;;;;;;;;;;;;;;;13.44;45.16;100788.16;4933674;28;99364;-66
2023/02/02 12:56:14;;;;;;;;;;;;;;;13.36;45.54;100785.19;4936261;28;98112;-65
2023/02/02 12:58:43;;;;;;;;;;;;;;;13.27;45.28;100783.06;4924193;28;98026;-66
2023/02/02 13:01:18;;;;;;;;;;;;;;;13.23;45.60;100803.66;4935895;28;101938;-65